createdAt,value
2022-11-07T00:00:36.907Z,1.57
2022-11-07T00:03:05.892Z,2.10
2022-11-07T00:05:51.699Z,1.10
2022-11-07T00:08:22.978Z,1.57
2022-11-07T00:11:09.693Z,1.60
2022-11-07T00:33:50.209Z,2.07
2022-11-07T00:36:20.657Z,1.60
2022-11-07T00:38:55.560Z,1.30
2022-11-07T00:41:25.225Z,1.20
2022-11-07T00:43:55.732Z,1.70
2022-11-07T00:46:26.709Z,1.83
2022-11-07T00:48:57.630Z,1.20
2022-11-07T00:51:28.488Z,0.90
2022-11-07T00:54:01.459Z,1.20
2022-11-07T00:56:30.788Z,1.20
2022-11-07T00:59:01.150Z,1.10
2022-11-07T01:01:31.275Z,1.20
2022-11-07T01:04:17.401Z,1.80
2022-11-07T01:06:47.482Z,0.93
2022-11-07T01:09:20.380Z,1.30
2022-11-07T01:11:49.963Z,1.30
2022-11-07T01:14:21.979Z,1.20
2022-11-07T01:16:50.826Z,1.13
2022-11-07T01:19:20.808Z,1.00
2022-11-07T01:21:49.606Z,1.23
2022-11-07T01:24:20.143Z,0.97
2022-11-07T01:26:49.045Z,1.57
2022-11-07T01:29:17.423Z,1.90
2022-11-07T01:31:45.734Z,2.50
2022-11-07T01:34:14.276Z,0.90
2022-11-07T01:36:42.667Z,1.20
2022-11-07T01:39:11.188Z,1.30
2022-11-07T01:41:41.271Z,1.13
2022-11-07T01:44:46.849Z,1.10
2022-11-07T01:47:15.929Z,1.90
2022-11-07T01:49:44.809Z,0.93
2022-11-07T01:52:16.927Z,1.20
2022-11-07T01:54:49.744Z,2.43
2022-11-07T01:57:23.857Z,1.23
2022-11-07T01:59:55.540Z,1.23
2022-11-07T02:02:26.919Z,1.77
2022-11-07T02:04:55.881Z,1.10
2022-11-07T02:07:25.397Z,1.27
2022-11-07T02:09:55.810Z,0.90
2022-11-07T02:12:28.832Z,1.40
2022-11-07T02:14:58.210Z,1.17
2022-11-07T02:17:26.748Z,1.60
2022-11-07T02:19:57.196Z,1.20
2022-11-07T02:22:34.633Z,2.83
2022-11-07T02:25:09.065Z,1.00
2022-11-07T02:27:39.353Z,1.10
2022-11-07T02:30:11.923Z,1.50
2022-11-07T02:32:42.865Z,1.90
2022-11-07T02:35:43.693Z,1.23
2022-11-07T02:38:15.576Z,2.20
2022-11-07T02:40:52.651Z,1.23
2022-11-07T02:43:24.026Z,1.10
2022-11-07T02:45:52.705Z,1.10
2022-11-07T02:48:21.384Z,1.27
2022-11-07T02:50:50.486Z,1.10
2022-11-07T02:53:19.263Z,1.63
2022-11-07T02:55:49.914Z,1.20
2022-11-07T02:58:18.480Z,1.67
2022-11-07T03:00:48.003Z,1.33
2022-11-07T03:03:16.989Z,1.73
2022-11-07T03:05:46.949Z,1.10
2022-11-07T03:08:15.583Z,1.23
2022-11-07T03:10:44.031Z,1.73
2022-11-07T03:13:15.155Z,1.30
2022-11-07T03:15:57.658Z,3.20
2022-11-07T03:18:28.593Z,2.20
2022-11-07T03:21:00.659Z,1.50
2022-11-07T03:23:30.061Z,1.73
2022-11-07T03:25:58.524Z,1.80
2022-11-07T03:28:29.079Z,1.37
2022-11-07T03:30:58.346Z,1.13
2022-11-07T03:33:26.466Z,1.77
2022-11-07T03:35:54.931Z,2.03
2022-11-07T03:38:23.353Z,0.97
2022-11-07T03:40:51.821Z,2.63
2022-11-07T03:43:20.684Z,1.73
2022-11-07T03:45:50.382Z,1.33
2022-11-07T03:48:18.768Z,2.57
2022-11-07T03:50:47.211Z,1.10
2022-11-07T03:53:19.427Z,1.40
2022-11-07T03:55:50.630Z,1.20
2022-11-07T03:58:18.886Z,1.30
2022-11-07T04:00:46.980Z,1.23
2022-11-07T04:03:16.513Z,2.83
2022-11-07T04:05:45.137Z,1.60
2022-11-07T04:08:13.597Z,1.77
2022-11-07T04:10:41.886Z,1.37
2022-11-07T04:13:33.154Z,1.10
2022-11-07T04:16:24.437Z,1.30
2022-11-07T04:18:54.212Z,2.97
2022-11-07T04:21:22.423Z,1.30
2022-11-07T04:23:50.765Z,1.30
2022-11-07T04:26:36.584Z,2.20
2022-11-07T04:29:04.696Z,2.23
2022-11-07T04:31:33.215Z,1.80
2022-11-07T04:34:02.920Z,2.97
2022-11-07T04:36:31.438Z,1.20
2022-11-07T04:38:59.820Z,1.47
2022-11-07T04:41:28.157Z,1.80
2022-11-07T04:43:56.452Z,1.70
2022-11-07T04:46:24.425Z,1.57
2022-11-07T04:48:52.516Z,1.43
2022-11-07T04:51:24.431Z,2.03
2022-11-07T04:53:52.727Z,1.33
2022-11-07T04:56:20.860Z,1.30
2022-11-07T04:58:48.890Z,1.13
2022-11-07T05:01:18.426Z,2.57
2022-11-07T05:03:46.820Z,2.17
2022-11-07T05:06:15.980Z,3.07
2022-11-07T05:08:45.675Z,2.30
2022-11-07T05:11:14.185Z,2.93
2022-11-07T05:13:42.644Z,2.27
2022-11-07T05:16:17.050Z,1.83
2022-11-07T05:18:45.331Z,4.03
2022-11-07T05:21:14.826Z,2.30
2022-11-07T05:23:41.859Z,2.23
2022-11-07T05:26:12.447Z,2.23
2022-11-07T05:28:41.124Z,3.07
2022-11-07T05:31:10.461Z,2.40
2022-11-07T05:33:38.798Z,2.37
2022-11-07T05:36:11.538Z,2.17
2022-11-07T05:38:41.724Z,1.90
2022-11-07T05:41:11.709Z,3.30
2022-11-07T05:43:40.451Z,4.37
2022-11-07T05:46:10.101Z,1.93
2022-11-07T05:48:38.411Z,2.07
2022-11-07T05:51:09.783Z,1.93
2022-11-07T05:53:38.363Z,2.63
2022-11-07T05:56:07.015Z,1.40
2022-11-07T05:58:51.378Z,2.43
2022-11-07T06:01:22.454Z,1.47
2022-11-07T06:06:39.326Z,2.40
2022-11-07T06:09:07.686Z,1.90
2022-11-07T06:11:35.674Z,1.37
2022-11-07T06:14:06.144Z,2.50
2022-11-07T06:16:34.680Z,2.90
2022-11-07T06:19:03.475Z,3.23
2022-11-07T06:21:33.738Z,1.47
2022-11-07T06:24:15.681Z,2.00
2022-11-07T06:26:44.989Z,1.70
2022-11-07T06:29:19.356Z,2.03
2022-11-07T06:32:03.377Z,1.80
2022-11-07T06:34:46.498Z,1.70
2022-11-07T06:37:21.179Z,2.70
2022-11-07T06:39:49.611Z,1.73
2022-11-07T06:42:22.042Z,3.20
2022-11-07T06:44:52.239Z,1.93
2022-11-07T06:47:20.804Z,2.20
2022-11-07T06:49:49.628Z,3.00
2022-11-07T06:52:18.686Z,3.67
2022-11-07T06:54:48.592Z,3.50
2022-11-07T06:57:19.040Z,2.03
2022-11-07T06:59:51.793Z,1.90
2022-11-07T07:02:51.821Z,2.27
2022-11-07T07:05:20.746Z,2.80
2022-11-07T07:07:51.120Z,4.07
2022-11-07T07:10:19.802Z,2.97
2022-11-07T07:12:49.741Z,3.60
2022-11-07T07:15:20.077Z,3.93
2022-11-07T07:17:50.607Z,2.83
2022-11-07T07:20:19.153Z,3.33
2022-11-07T07:22:51.953Z,3.23
2022-11-07T07:25:25.664Z,1.80
2022-11-07T07:28:20.538Z,2.13
2022-11-07T07:30:52.218Z,5.53
2022-11-07T07:33:28.750Z,2.37
2022-11-07T07:35:58.767Z,2.67
2022-11-07T07:38:29.021Z,3.07
2022-11-07T07:43:59.138Z,3.00
2022-11-07T07:46:42.482Z,1.70
2022-11-07T07:55:05.653Z,3.43
2022-11-07T07:57:34.386Z,2.87
2022-11-07T08:00:07.457Z,1.40
2022-11-07T08:02:35.893Z,1.60
2022-11-07T08:05:06.447Z,1.90
2022-11-07T08:07:35.337Z,2.00
2022-11-07T08:10:26.967Z,3.10
2022-11-07T08:13:12.799Z,1.57
2022-11-07T08:19:04.645Z,3.73
2022-11-07T08:24:22.470Z,1.70
2022-11-07T08:26:51.072Z,5.23
2022-11-07T08:29:21.258Z,3.73
2022-11-07T08:31:51.188Z,3.03
2022-11-07T08:34:20.702Z,1.23
2022-11-07T08:37:00.711Z,2.63
2022-11-07T08:39:30.485Z,3.23
2022-11-07T08:41:59.136Z,1.53
2022-11-07T08:44:28.651Z,4.80
2022-11-07T08:46:58.225Z,1.70
2022-11-07T08:49:26.908Z,1.23
2022-11-07T08:51:58.516Z,1.60
2022-11-07T08:54:27.033Z,2.67
2022-11-07T08:56:55.420Z,1.83
2022-11-07T08:59:24.449Z,2.97
2022-11-07T09:02:38.873Z,1.60
2022-11-07T09:04:42.431Z,2.33
2022-11-07T09:07:12.646Z,2.47
2022-11-07T09:09:41.120Z,1.10
2022-11-07T09:12:10.077Z,1.20
2022-11-07T09:14:40.875Z,2.13
2022-11-07T09:17:09.429Z,1.30
2022-11-07T09:19:37.876Z,2.33
2022-11-07T09:22:06.280Z,2.30
2022-11-07T09:24:36.847Z,3.23
2022-11-07T09:27:07.082Z,2.07
2022-11-07T09:29:36.923Z,2.10
2022-11-07T09:32:30.405Z,1.80
2022-11-07T09:34:59.435Z,1.20
2022-11-07T09:37:35.561Z,2.27
2022-11-07T09:40:08.113Z,1.53
2022-11-07T09:42:48.413Z,1.80
2022-11-07T09:45:17.127Z,1.30
2022-11-07T09:47:49.516Z,1.60
2022-11-07T09:50:25.238Z,1.40
2022-11-07T09:52:58.519Z,1.93
2022-11-07T09:55:42.693Z,2.00
2022-11-07T09:58:20.968Z,1.30
2022-11-07T10:00:49.776Z,1.90
2022-11-07T10:03:19.160Z,1.23
2022-11-07T10:05:56.223Z,1.00
2022-11-07T10:08:29.764Z,1.47
2022-11-07T10:11:09.646Z,1.83
2022-11-07T10:13:51.092Z,1.33
2022-11-07T10:16:27.857Z,1.67
2022-11-07T10:19:10.701Z,2.27
2022-11-07T10:21:50.484Z,1.53
2022-11-07T10:24:42.093Z,2.47
2022-11-07T10:27:14.266Z,2.80
2022-11-07T10:29:53.046Z,3.93
2022-11-07T10:32:30.358Z,2.07
2022-11-07T10:35:17.055Z,3.87
2022-11-07T10:37:46.289Z,1.47
2022-11-07T10:40:19.463Z,2.17
2022-11-07T10:43:35.069Z,5.27
2022-11-07T10:46:16.872Z,1.37
2022-11-07T11:00:45.902Z,1.67
2022-11-07T11:12:46.428Z,2.10
2022-11-07T11:24:33.985Z,1.83
2022-11-07T11:30:08.816Z,1.63
2022-11-07T11:39:09.965Z,2.07
2022-11-07T11:41:50.964Z,2.30
2022-11-07T11:44:38.599Z,1.90
2022-11-07T11:47:14.955Z,1.73
2022-11-07T11:49:54.458Z,3.67
2022-11-07T11:52:38.427Z,1.70
2022-11-07T11:55:22.593Z,2.47
2022-11-07T11:58:12.712Z,1.43
2022-11-07T12:00:48.565Z,1.50
2022-11-07T12:03:43.804Z,2.77
2022-11-07T12:06:31.844Z,2.23
2022-11-07T12:09:18.152Z,1.30
2022-11-07T12:12:01.521Z,1.20
2022-11-07T12:14:57.883Z,1.47
2022-11-07T12:17:35.270Z,2.10
2022-11-07T12:20:16.629Z,1.23
2022-11-07T12:22:55.584Z,2.33
2022-11-07T12:25:30.186Z,1.83
2022-11-07T12:28:12.663Z,1.83
2022-11-07T12:30:57.594Z,4.73
2022-11-07T12:33:36.661Z,3.30
2022-11-07T12:36:15.151Z,1.20
2022-11-07T12:39:10.222Z,2.33
2022-11-07T12:41:48.463Z,1.73
2022-11-07T12:44:33.231Z,2.00
2022-11-07T12:47:03.651Z,1.67
2022-11-07T12:49:52.358Z,1.30
2022-11-07T12:52:45.948Z,1.90
2022-11-07T12:58:39.286Z,1.60
2022-11-07T13:01:14.780Z,1.27
2022-11-07T13:06:56.115Z,1.57
2022-11-07T13:09:33.229Z,3.43
2022-11-07T13:20:48.190Z,2.93
2022-11-07T13:23:35.036Z,2.23
2022-11-07T13:29:17.938Z,1.63
2022-11-07T13:31:55.674Z,1.07
2022-11-07T13:34:35.024Z,1.93
2022-11-07T13:40:08.957Z,1.47
2022-11-07T13:42:42.680Z,1.10
2022-11-07T13:45:25.363Z,2.17
2022-11-07T13:48:01.259Z,1.10
2022-11-07T13:54:04.011Z,1.23
2022-11-07T13:56:41.929Z,4.43
2022-11-07T13:59:17.283Z,1.50
2022-11-07T14:01:48.030Z,1.73
2022-11-07T14:04:19.533Z,1.57
2022-11-07T14:06:49.953Z,1.07
2022-11-07T14:09:21.847Z,3.07
2022-11-07T14:11:53.526Z,2.30
2022-11-07T14:14:25.090Z,1.20
2022-11-07T14:16:59.155Z,1.77
2022-11-07T14:22:14.662Z,1.43
2022-11-07T14:24:54.365Z,2.87
2022-11-07T14:49:32.923Z,1.97
2022-11-07T14:52:05.201Z,3.10
2022-11-07T14:54:38.229Z,3.10
2022-11-07T14:57:07.739Z,2.60
2022-11-07T14:59:37.032Z,2.50
2022-11-07T15:02:25.005Z,1.70
2022-11-07T15:05:03.349Z,2.70
2022-11-07T15:07:36.807Z,2.50
2022-11-07T15:10:21.943Z,2.00
2022-11-07T15:12:55.385Z,2.63
2022-11-07T15:15:30.401Z,4.57
2022-11-07T15:18:00.818Z,1.90
2022-11-07T15:20:38.676Z,3.60
2022-11-07T15:23:27.427Z,2.67
2022-11-07T15:30:07.526Z,2.27
2022-11-07T15:32:47.337Z,2.83
2022-11-07T15:35:42.895Z,4.70
2022-11-07T15:38:20.665Z,2.47
2022-11-07T15:40:51.548Z,6.40
2022-11-07T15:43:34.332Z,2.47
2022-11-07T15:46:22.238Z,2.40
2022-11-07T15:48:56.891Z,2.20
2022-11-07T15:51:29.378Z,4.40
2022-11-07T15:54:04.871Z,6.13
2022-11-07T15:57:00.453Z,4.80
2022-11-07T15:59:48.595Z,3.60
2022-11-07T16:05:48.858Z,6.23
2022-11-07T16:08:20.228Z,8.53
2022-11-07T16:10:52.133Z,2.47
2022-11-07T16:13:21.002Z,5.40
2022-11-07T16:15:54.605Z,8.00
2022-11-07T16:18:23.952Z,3.57
2022-11-07T16:20:54.856Z,4.23
2022-11-07T16:23:23.379Z,5.10
2022-11-07T16:25:53.614Z,3.00
2022-11-07T16:28:25.829Z,4.20
2022-11-07T16:30:59.527Z,5.23
2022-11-07T16:33:29.088Z,5.30
2022-11-07T16:36:00.772Z,4.20
2022-11-07T16:38:34.855Z,4.17
2022-11-07T16:41:04.914Z,4.60
2022-11-07T16:43:35.336Z,7.47
2022-11-07T16:46:03.988Z,5.77
2022-11-07T16:48:32.490Z,3.30
2022-11-07T16:51:01.175Z,6.63
2022-11-07T16:56:47.729Z,8.43
2022-11-07T16:59:20.148Z,9.50
2022-11-07T17:01:49.916Z,18.77
2022-11-07T17:11:32.171Z,4.33
2022-11-07T17:35:32.070Z,6.43
2022-11-07T17:38:02.286Z,5.00
2022-11-07T17:40:35.325Z,5.37
2022-11-07T17:43:03.828Z,4.83
2022-11-07T17:45:36.773Z,4.33
2022-11-07T17:48:05.066Z,4.47
2022-11-07T17:50:34.795Z,5.40
2022-11-07T17:53:07.537Z,7.70
2022-11-07T17:58:19.715Z,3.77
2022-11-07T18:00:59.402Z,4.47
2022-11-07T18:03:28.332Z,5.87
2022-11-07T18:06:04.761Z,4.37
2022-11-07T18:08:51.844Z,4.20
2022-11-07T18:11:30.802Z,6.50
2022-11-07T18:14:02.546Z,11.57
2022-11-07T18:16:34.301Z,9.53
2022-11-07T18:19:06.514Z,9.70
2022-11-07T18:21:37.003Z,8.30
2022-11-07T18:24:06.853Z,11.27
2022-11-07T18:26:37.891Z,9.27
2022-11-07T18:29:12.115Z,9.37
2022-11-07T18:37:45.831Z,8.63
2022-11-07T18:49:03.958Z,3.70
2022-11-07T18:51:40.010Z,7.50
2022-11-07T18:54:13.560Z,18.90
2022-11-07T18:56:43.715Z,5.97
2022-11-07T18:59:12.589Z,11.30
2022-11-07T19:01:55.564Z,10.60
2022-11-07T19:07:26.320Z,8.30
2022-11-07T19:13:29.218Z,6.23
2022-11-07T19:26:45.284Z,7.00
2022-11-07T19:29:14.995Z,10.07
2022-11-07T19:31:55.124Z,6.20
2022-11-07T19:34:30.962Z,7.83
2022-11-07T19:37:09.169Z,7.40
2022-11-07T19:39:43.285Z,7.13
2022-11-07T19:56:23.500Z,7.30
2022-11-07T19:58:54.589Z,9.47
2022-11-07T20:01:58.987Z,8.43
2022-11-07T20:04:36.539Z,5.80
2022-11-07T21:17:27.783Z,5.23
2022-11-07T21:19:56.641Z,6.23
2022-11-07T21:42:18.175Z,5.07
2022-11-07T21:44:49.462Z,6.63
2022-11-07T21:47:19.162Z,3.63
2022-11-07T21:49:51.105Z,4.37
2022-11-07T21:52:51.017Z,6.10
2022-11-07T21:55:26.312Z,5.37
2022-11-07T21:57:54.869Z,4.00
2022-11-07T22:00:27.857Z,5.60
2022-11-07T22:03:00.109Z,3.23
2022-11-07T22:05:32.087Z,7.43
2022-11-07T22:08:01.402Z,4.03
2022-11-07T22:10:32.004Z,5.03
2022-11-07T22:13:04.480Z,4.00
2022-11-07T22:15:32.841Z,4.97
2022-11-07T23:28:19.203Z,2.40
2022-11-07T23:30:54.093Z,2.47
2022-11-07T23:33:22.945Z,3.47
2022-11-07T23:35:51.924Z,2.73
2022-11-07T23:38:20.912Z,2.93
2022-11-07T23:40:49.375Z,4.33
2022-11-07T23:43:19.546Z,3.43
2022-11-07T23:46:06.243Z,6.40
2022-11-07T23:48:52.132Z,3.83
2022-11-07T23:51:20.496Z,4.53
2022-11-07T23:54:05.854Z,2.47
2022-11-07T23:56:36.695Z,3.23
2022-11-07T23:59:25.039Z,2.87
